Graham, Kentucky
Current Conditions -  °F | °C
As of 5:15 AM on Friday 24 Oct 2014 (Local Time) from K2I0 Reporting Station
Haze Haze  
Wind Chill: 42°   Ceiling: 100
Heat Index: 42°   Visibility: 0.75mi
Dew Point: 42°   Wind: 0mph
Humidity: 100%   Direction: NA
Pressure: 30.13"   Gusts: NA
Location:  37.25°N, 87.28°W
Report Text: K2I0 241015Z AUTO 00000KT 3/4SM BR OVC001 05/05 A3013 RMK AO2 T00540054
Loading
Personal Weather Stations






























Interactive Weather Map
Tropical Storm Tracking
New forecast layout! Learn more

10-Day Weather Forecast

Advertisements
Track Severe Weather on mobile